sensor_id;sensor_type;location;lat;lon;timestamp;pressure;altitude;pressure_sealevel;temperature;humidity
55044;BME280;54902;50.420;18.854;2023-02-18T00:00:28;100951.98;;;10.13;82.12
55044;BME280;54902;50.420;18.854;2023-02-18T00:01:00;100935.60;;;10.13;82.11
55044;BME280;54902;50.420;18.854;2023-02-18T00:01:32;100938.32;;;10.13;82.13
55044;BME280;54902;50.420;18.854;2023-02-18T00:02:04;100951.98;;;10.13;82.11
55044;BME280;54902;50.420;18.854;2023-02-18T00:02:35;100946.52;;;10.13;82.21
55044;BME280;54902;50.420;18.854;2023-02-18T00:03:06;100946.52;;;10.13;82.10
55044;BME280;54902;50.420;18.854;2023-02-18T00:03:37;100947.38;;;10.13;82.09
55044;BME280;54902;50.420;18.854;2023-02-18T00:04:11;100950.10;;;10.13;82.09
55044;BME280;54902;50.420;18.854;2023-02-18T00:04:42;100957.44;;;10.13;82.09
55044;BME280;54902;50.420;18.854;2023-02-18T00:05:13;100950.10;;;10.13;82.09
55044;BME280;54902;50.420;18.854;2023-02-18T00:05:44;100954.59;;;10.14;82.09
55044;BME280;54902;50.420;18.854;2023-02-18T00:06:21;100961.03;;;10.13;82.07
55044;BME280;54902;50.420;18.854;2023-02-18T00:06:52;100970.97;;;10.14;82.08
55044;BME280;54902;50.420;18.854;2023-02-18T00:07:23;100970.97;;;10.14;82.07
55044;BME280;54902;50.420;18.854;2023-02-18T00:07:54;100964.61;;;10.14;82.06
55044;BME280;54902;50.420;18.854;2023-02-18T00:08:25;100963.63;;;10.15;82.07
55044;BME280;54902;50.420;18.854;2023-02-18T00:08:56;100973.70;;;10.14;82.10
55044;BME280;54902;50.420;18.854;2023-02-18T00:09:31;100974.55;;;10.15;82.12
55044;BME280;54902;50.420;18.854;2023-02-18T00:10:04;100975.44;;;10.15;82.13
55044;BME280;54902;50.420;18.854;2023-02-18T00:10:35;100977.16;;;10.16;82.13
55044;BME280;54902;50.420;18.854;2023-02-18T00:11:07;100983.50;;;10.17;82.17
55044;BME280;54902;50.420;18.854;2023-02-18T00:11:38;100979.89;;;10.16;82.17
55044;BME280;54902;50.420;18.854;2023-02-18T00:12:09;100988.97;;;10.17;82.19
55044;BME280;54902;50.420;18.854;2023-02-18T00:12:41;100995.27;;;10.17;82.16
55044;BME280;54902;50.420;18.854;2023-02-18T00:13:12;100999.88;;;10.17;82.14
55044;BME280;54902;50.420;18.854;2023-02-18T00:13:52;100992.55;;;10.17;82.14
55044;BME280;54902;50.420;18.854;2023-02-18T00:14:23;101003.48;;;10.17;82.14
55044;BME280;54902;50.420;18.854;2023-02-18T00:14:54;101004.33;;;10.18;82.21
55044;BME280;54902;50.420;18.854;2023-02-18T00:15:25;101014.40;;;10.17;82.16
55044;BME280;54902;50.420;18.854;2023-02-18T00:16:41;101018.87;;;10.18;82.22
55044;BME280;54902;50.420;18.854;2023-02-18T00:17:12;101022.59;;;10.17;82.29
55044;BME280;54902;50.420;18.854;2023-02-18T00:17:42;101042.55;;;10.18;82.30
55044;BME280;54902;50.420;18.854;2023-02-18T00:18:13;101054.36;;;10.18;82.33
55044;BME280;54902;50.420;18.854;2023-02-18T00:18:44;101078.93;;;10.18;82.45
55044;BME280;54902;50.420;18.854;2023-02-18T00:19:17;101074.46;;;10.17;82.60
55044;BME280;54902;50.420;18.854;2023-02-18T00:19:49;101051.63;;;10.18;82.63
55044;BME280;54902;50.420;18.854;2023-02-18T00:20:19;101041.56;;;10.19;82.74
55044;BME280;54902;50.420;18.854;2023-02-18T00:20:50;101047.92;;;10.19;83.01
55044;BME280;54902;50.420;18.854;2023-02-18T00:21:21;101065.28;;;10.18;83.18
55044;BME280;54902;50.420;18.854;2023-02-18T00:21:52;101015.16;;;10.19;83.28
55044;BME280;54902;50.420;18.854;2023-02-18T00:22:23;101032.41;;;10.20;83.02
55044;BME280;54902;50.420;18.854;2023-02-18T00:22:54;101035.13;;;10.20;82.79
55044;BME280;54902;50.420;18.854;2023-02-18T00:23:26;101017.98;;;10.18;82.63
55044;BME280;54902;50.420;18.854;2023-02-18T00:23:57;101021.72;;;10.17;82.53
55044;BME280;54902;50.420;18.854;2023-02-18T00:24:28;101018.11;;;10.16;82.44
55044;BME280;54902;50.420;18.854;2023-02-18T00:24:59;101032.86;;;10.14;82.33
55044;BME280;54902;50.420;18.854;2023-02-18T00:25:30;101022.84;;;10.14;82.21
55044;BME280;54902;50.420;18.854;2023-02-18T00:26:09;101020.23;;;10.13;82.09
55044;BME280;54902;50.420;18.854;2023-02-18T00:26:40;101032.98;;;10.12;81.99
55044;BME280;54902;50.420;18.854;2023-02-18T00:27:11;101038.56;;;10.11;81.94
55044;BME280;54902;50.420;18.854;2023-02-18T00:27:42;101025.04;;;10.09;81.87
55044;BME280;54902;50.420;18.854;2023-02-18T00:28:13;101039.55;;;10.10;81.75
55044;BME280;54902;50.420;18.854;2023-02-18T00:28:45;101031.61;;;10.07;81.68
55044;BME280;54902;50.420;18.854;2023-02-18T00:29:19;101036.20;;;10.06;81.70
55044;BME280;54902;50.420;18.854;2023-02-18T00:29:50;101038.18;;;10.04;81.69
55044;BME280;54902;50.420;18.854;2023-02-18T00:30:21;101033.69;;;10.03;81.70
55044;BME280;54902;50.420;18.854;2023-02-18T00:30:53;101041.02;;;10.03;81.69
55044;BME280;54902;50.420;18.854;2023-02-18T00:31:31;101044.74;;;10.02;81.67
55044;BME280;54902;50.420;18.854;2023-02-18T00:32:01;101040.39;;;9.99;81.66
55044;BME280;54902;50.420;18.854;2023-02-18T00:32:34;101017.51;;;9.89;81.64
55044;BME280;54902;50.420;18.854;2023-02-18T00:33:05;101044.21;;;9.97;81.64
55044;BME280;54902;50.420;18.854;2023-02-18T00:33:36;101039.77;;;9.96;81.64
55044;BME280;54902;50.420;18.854;2023-02-18T00:34:09;101018.88;;;9.95;81.56
55044;BME280;54902;50.420;18.854;2023-02-18T00:34:40;101043.45;;;9.95;81.46
55044;BME280;54902;50.420;18.854;2023-02-18T00:35:11;101029.92;;;9.93;81.33
55044;BME280;54902;50.420;18.854;2023-02-18T00:35:42;101044.55;;;9.92;81.27
55044;BME280;54902;50.420;18.854;2023-02-18T00:36:16;101042.80;;;9.91;81.23
55044;BME280;54902;50.420;18.854;2023-02-18T00:36:47;101041.09;;;9.90;81.27
55044;BME280;54902;50.420;18.854;2023-02-18T00:37:17;101036.61;;;9.89;81.23
55044;BME280;54902;50.420;18.854;2023-02-18T00:37:51;101053.96;;;9.88;81.19
55044;BME280;54902;50.420;18.854;2023-02-18T00:38:22;101051.35;;;9.87;81.07
55044;BME280;54902;50.420;18.854;2023-02-18T00:38:58;101045.90;;;9.87;81.05
55044;BME280;54902;50.420;18.854;2023-02-18T00:39:30;101055.06;;;9.86;81.03
55044;BME280;54902;50.420;18.854;2023-02-18T00:40:01;101057.91;;;9.84;81.02
55044;BME280;54902;50.420;18.854;2023-02-18T00:40:36;101057.05;;;9.84;80.97
55044;BME280;54902;50.420;18.854;2023-02-18T00:41:07;101041.66;;;9.83;80.95
55044;BME280;54902;50.420;18.854;2023-02-18T00:41:38;101054.41;;;9.83;80.91
55044;BME280;54902;50.420;18.854;2023-02-18T00:42:09;101051.80;;;9.81;80.92
55044;BME280;54902;50.420;18.854;2023-02-18T00:42:40;101050.95;;;9.81;80.92
55044;BME280;54902;50.420;18.854;2023-02-18T00:43:11;101051.93;;;9.80;80.93
55044;BME280;54902;50.420;18.854;2023-02-18T00:43:43;101042.00;;;9.79;80.92
55044;BME280;54902;50.420;18.854;2023-02-18T00:44:14;101048.47;;;9.78;80.89
55044;BME280;54902;50.420;18.854;2023-02-18T00:44:45;101043.88;;;9.78;80.86
55044;BME280;54902;50.420;18.854;2023-02-18T00:45:16;101063.09;;;9.77;80.84
55044;BME280;54902;50.420;18.854;2023-02-18T00:45:47;101049.45;;;9.77;80.83
55044;BME280;54902;50.420;18.854;2023-02-18T00:46:18;101058.61;;;9.76;80.80
55044;BME280;54902;50.420;18.854;2023-02-18T00:46:49;101067.77;;;9.75;80.78
55044;BME280;54902;50.420;18.854;2023-02-18T00:47:20;101045.09;;;9.74;80.71
55044;BME280;54902;50.420;18.854;2023-02-18T00:47:50;101052.42;;;9.74;80.59
55044;BME280;54902;50.420;18.854;2023-02-18T00:48:21;101052.42;;;9.74;80.52
55044;BME280;54902;50.420;18.854;2023-02-18T00:48:53;101055.23;;;9.72;80.35
55044;BME280;54902;50.420;18.854;2023-02-18T00:49:24;101052.50;;;9.72;80.26
55044;BME280;54902;50.420;18.854;2023-02-18T00:49:55;101047.17;;;9.71;80.20
55044;BME280;54902;50.420;18.854;2023-02-18T00:50:26;101030.80;;;9.71;80.14
55044;BME280;54902;50.420;18.854;2023-02-18T00:50:57;101048.18;;;9.70;80.17
55044;BME280;54902;50.420;18.854;2023-02-18T00:51:30;101047.29;;;9.69;80.07
55044;BME280;54902;50.420;18.854;2023-02-18T00:52:01;101057.34;;;9.69;80.06
55044;BME280;54902;50.420;18.854;2023-02-18T00:52:32;101056.46;;;9.68;80.04
55044;BME280;54902;50.420;18.854;2023-02-18T00:53:03;101057.34;;;9.69;80.05
55044;BME280;54902;50.420;18.854;2023-02-18T00:53:35;101043.82;;;9.67;80.03
55044;BME280;54902;50.420;18.854;2023-02-18T00:54:06;101055.71;;;9.66;79.98
55044;BME280;54902;50.420;18.854;2023-02-18T00:54:37;101034.87;;;9.65;79.95
55044;BME280;54902;50.420;18.854;2023-02-18T00:55:07;101042.20;;;9.65;79.93
55044;BME280;54902;50.420;18.854;2023-02-18T00:55:43;101044.92;;;9.65;79.96
55044;BME280;54902;50.420;18.854;2023-02-18T00:56:14;101046.89;;;9.63;80.00
55044;BME280;54902;50.420;18.854;2023-02-18T00:56:45;101056.94;;;9.62;79.93
55044;BME280;54902;50.420;18.854;2023-02-18T00:57:16;101035.12;;;9.62;79.89
55044;BME280;54902;50.420;18.854;2023-02-18T00:57:47;101048.87;;;9.61;79.90
55044;BME280;54902;50.420;18.854;2023-02-18T00:58:18;101048.87;;;9.61;79.88
55044;BME280;54902;50.420;18.854;2023-02-18T00:58:49;101036.22;;;9.60;79.89
55044;BME280;54902;50.420;18.854;2023-02-18T00:59:21;101037.20;;;9.59;79.88
55044;BME280;54902;50.420;18.854;2023-02-18T00:59:52;101032.72;;;9.58;79.84
55044;BME280;54902;50.420;18.854;2023-02-18T01:00:23;101045.50;;;9.57;79.70
55044;BME280;54902;50.420;18.854;2023-02-18T01:00:55;101038.18;;;9.58;79.76
55044;BME280;54902;50.420;18.854;2023-02-18T01:01:26;101048.34;;;9.56;79.73
55044;BME280;54902;50.420;18.854;2023-02-18T01:01:57;101045.61;;;9.56;79.73
55044;BME280;54902;50.420;18.854;2023-02-18T01:02:28;101060.23;;;9.55;79.66
55044;BME280;54902;50.420;18.854;2023-02-18T01:02:59;101046.60;;;9.55;79.63
55044;BME280;54902;50.420;18.854;2023-02-18T01:03:30;101033.89;;;9.43;79.64
55044;BME280;54902;50.420;18.854;2023-02-18T01:04:01;101034.95;;;9.53;79.66
55044;BME280;54902;50.420;18.854;2023-02-18T01:04:32;101048.59;;;9.53;79.63
55044;BME280;54902;50.420;18.854;2023-02-18T01:05:03;101052.17;;;9.53;79.61
55044;BME280;54902;50.420;18.854;2023-02-18T01:05:36;101049.57;;;9.52;79.61
55044;BME280;54902;50.420;18.854;2023-02-18T01:06:07;101055.99;;;9.51;79.57
55044;BME280;54902;50.420;18.854;2023-02-18T01:06:39;101043.34;;;9.50;79.53
55044;BME280;54902;50.420;18.854;2023-02-18T01:07:12;101046.06;;;9.50;79.50
55044;BME280;54902;50.420;18.854;2023-02-18T01:07:43;101043.34;;;9.50;79.50
55044;BME280;54902;50.420;18.854;2023-02-18T01:08:15;101050.66;;;9.49;79.51
55044;BME280;54902;50.420;18.854;2023-02-18T01:08:46;101045.33;;;9.48;79.50
55044;BME280;54902;50.420;18.854;2023-02-18T01:09:17;101044.44;;;9.47;79.53
55044;BME280;54902;50.420;18.854;2023-02-18T01:09:48;101043.58;;;9.47;79.54
55044;BME280;54902;50.420;18.854;2023-02-18T01:10:19;101049.04;;;9.47;79.38
55044;BME280;54902;50.420;18.854;2023-02-18T01:10:54;101065.39;;;9.47;79.30
55044;BME280;54902;50.420;18.854;2023-02-18T01:11:25;101059.20;;;9.45;79.23
55044;BME280;54902;50.420;18.854;2023-02-18T01:11:56;101047.41;;;9.44;79.22
55044;BME280;54902;50.420;18.854;2023-02-18T01:12:27;101052.00;;;9.44;79.25
55044;BME280;54902;50.420;18.854;2023-02-18T01:12:58;101060.18;;;9.44;79.30
55044;BME280;54902;50.420;18.854;2023-02-18T01:13:29;101033.03;;;9.42;79.24
55044;BME280;54902;50.420;18.854;2023-02-18T01:14:02;101041.21;;;9.42;79.23
55044;BME280;54902;50.420;18.854;2023-02-18T01:14:33;101033.36;;;9.38;79.25
55044;BME280;54902;50.420;18.854;2023-02-18T01:15:05;101046.78;;;9.41;79.28
55044;BME280;54902;50.420;18.854;2023-02-18T01:15:37;101045.03;;;9.40;79.30
55044;BME280;54902;50.420;18.854;2023-02-18T01:16:09;101035.12;;;9.39;79.14
55044;BME280;54902;50.420;18.854;2023-02-18T01:16:40;101046.02;;;9.39;79.10
55044;BME280;54902;50.420;18.854;2023-02-18T01:17:11;101019.72;;;9.38;79.08
55044;BME280;54902;50.420;18.854;2023-02-18T01:17:42;101037.95;;;9.37;78.88
55044;BME280;54902;50.420;18.854;2023-02-18T01:18:13;101046.98;;;9.38;78.80
55044;BME280;54902;50.420;18.854;2023-02-18T01:18:45;101040.79;;;9.36;78.73
55044;BME280;54902;50.420;18.854;2023-02-18T01:19:16;101028.02;;;9.36;78.45
55044;BME280;54902;50.420;18.854;2023-02-18T01:19:47;101035.34;;;9.36;78.20
55044;BME280;54902;50.420;18.854;2023-02-18T01:20:18;101016.25;;;9.36;78.02
55044;BME280;54902;50.420;18.854;2023-02-18T01:20:49;101040.79;;;9.36;77.78
55044;BME280;54902;50.420;18.854;2023-02-18T01:21:20;101035.47;;;9.34;77.67
55044;BME280;54902;50.420;18.854;2023-02-18T01:21:51;101034.57;;;9.34;77.68
55044;BME280;54902;50.420;18.854;2023-02-18T01:22:22;101032.82;;;9.33;77.55
55044;BME280;54902;50.420;18.854;2023-02-18T01:22:53;101041.00;;;9.33;77.27
55044;BME280;54902;50.420;18.854;2023-02-18T01:23:24;101033.84;;;9.32;77.29
55044;BME280;54902;50.420;18.854;2023-02-18T01:23:55;101049.42;;;9.30;77.31
55044;BME280;54902;50.420;18.854;2023-02-18T01:24:27;101037.53;;;9.31;77.02
55044;BME280;54902;50.420;18.854;2023-02-18T01:24:58;101027.61;;;9.30;76.88
55044;BME280;54902;50.420;18.854;2023-02-18T01:25:29;101043.97;;;9.30;76.75
55044;BME280;54902;50.420;18.854;2023-02-18T01:26:00;101052.15;;;9.30;76.53
55044;BME280;54902;50.420;18.854;2023-02-18T01:26:31;101039.48;;;9.29;76.39
55044;BME280;54902;50.420;18.854;2023-02-18T01:27:03;101044.94;;;9.29;76.27
55044;BME280;54902;50.420;18.854;2023-02-18T01:27:34;101058.69;;;9.27;76.43
55044;BME280;54902;50.420;18.854;2023-02-18T01:28:06;101055.96;;;9.27;76.35
55044;BME280;54902;50.420;18.854;2023-02-18T01:28:38;101052.38;;;9.27;76.04
55044;BME280;54902;50.420;18.854;2023-02-18T01:29:10;101064.27;;;9.26;76.00
55044;BME280;54902;50.420;18.854;2023-02-18T01:29:41;101054.34;;;9.25;76.18
55044;BME280;54902;50.420;18.854;2023-02-18T01:30:15;101036.26;;;9.24;76.29
55044;BME280;54902;50.420;18.854;2023-02-18T01:30:46;101040.82;;;9.24;76.19
55044;BME280;54902;50.420;18.854;2023-02-18T01:31:17;101049.12;;;9.22;76.23
55044;BME280;54902;50.420;18.854;2023-02-18T01:31:48;101044.65;;;9.21;76.15
55044;BME280;54902;50.420;18.854;2023-02-18T01:32:19;101041.06;;;9.21;75.98
55044;BME280;54902;50.420;18.854;2023-02-18T01:32:50;101041.92;;;9.21;75.85
55044;BME280;54902;50.420;18.854;2023-02-18T01:33:21;101052.08;;;9.19;75.84
55044;BME280;54902;50.420;18.854;2023-02-18T01:33:52;101054.69;;;9.21;75.68
55044;BME280;54902;50.420;18.854;2023-02-18T01:34:23;101058.50;;;9.18;75.64
55044;BME280;54902;50.420;18.854;2023-02-18T01:34:54;101054.81;;;9.19;75.60
55044;BME280;54902;50.420;18.854;2023-02-18T01:35:26;101061.23;;;9.18;75.55
55044;BME280;54902;50.420;18.854;2023-02-18T01:35:56;101050.45;;;9.17;75.52
55044;BME280;54902;50.420;18.854;2023-02-18T01:36:27;101057.77;;;9.16;75.66
55044;BME280;54902;50.420;18.854;2023-02-18T01:36:58;101056.88;;;9.16;75.70
55044;BME280;54902;50.420;18.854;2023-02-18T01:37:29;101047.84;;;9.15;75.52
55044;BME280;54902;50.420;18.854;2023-02-18T01:38:00;101059.72;;;9.14;75.59
55044;BME280;54902;50.420;18.854;2023-02-18T01:38:32;101064.39;;;9.12;75.66
55044;BME280;54902;50.420;18.854;2023-02-18T01:39:04;101058.95;;;9.12;75.57
55044;BME280;54902;50.420;18.854;2023-02-18T01:39:35;101065.41;;;9.11;75.69
55044;BME280;54902;50.420;18.854;2023-02-18T01:40:13;101041.86;;;9.10;75.54
55044;BME280;54902;50.420;18.854;2023-02-18T01:40:48;101057.34;;;9.10;75.67
55044;BME280;54902;50.420;18.854;2023-02-18T01:41:20;101061.91;;;9.09;75.44
55044;BME280;54902;50.420;18.854;2023-02-18T01:41:51;101070.20;;;9.08;75.50
55044;BME280;54902;50.420;18.854;2023-02-18T01:42:27;101049.38;;;9.07;75.57
55044;BME280;54902;50.420;18.854;2023-02-18T01:42:59;101067.59;;;9.06;75.52
55044;BME280;54902;50.420;18.854;2023-02-18T01:43:31;101053.10;;;9.06;75.21
55044;BME280;54902;50.420;18.854;2023-02-18T01:44:18;101063.12;;;9.05;75.10
55044;BME280;54902;50.420;18.854;2023-02-18T01:44:46;101074.13;;;9.04;75.10
55044;BME280;54902;50.420;18.854;2023-02-18T01:46:43;101047.11;;;9.01;73.96
55044;BME280;54902;50.420;18.854;2023-02-18T01:47:15;101053.42;;;9.01;73.17
55044;BME280;54902;50.420;18.854;2023-02-18T01:47:46;101040.77;;;9.00;72.98
55044;BME280;54902;50.420;18.854;2023-02-18T01:48:21;101049.06;;;8.99;72.88
55044;BME280;54902;50.420;18.854;2023-02-18T01:48:56;101061.83;;;8.98;72.12
55044;BME280;54902;50.420;18.854;2023-02-18T01:49:33;101041.87;;;8.98;72.19
55044;BME280;54902;50.420;18.854;2023-02-18T01:50:06;101065.53;;;8.97;72.17
55044;BME280;54902;50.420;18.854;2023-02-18T01:50:45;101064.79;;;8.95;72.26
55044;BME280;54902;50.420;18.854;2023-02-18T01:51:23;101059.34;;;8.95;71.34
55044;BME280;54902;50.420;18.854;2023-02-18T01:52:02;101056.70;;;8.94;71.51
55044;BME280;54902;50.420;18.854;2023-02-18T01:52:34;101049.54;;;8.93;70.77
55044;BME280;54902;50.420;18.854;2023-02-18T01:53:06;101062.38;;;8.91;71.05
55044;BME280;54902;50.420;18.854;2023-02-18T01:53:50;101066.98;;;8.90;71.32
55044;BME280;54902;50.420;18.854;2023-02-18T01:54:29;101073.40;;;8.89;71.64
55044;BME280;54902;50.420;18.854;2023-02-18T01:55:01;101056.27;;;8.87;71.03
55044;BME280;54902;50.420;18.854;2023-02-18T01:55:33;101056.27;;;8.87;70.90
55044;BME280;54902;50.420;18.854;2023-02-18T01:56:09;101079.08;;;8.86;70.77
55044;BME280;54902;50.420;18.854;2023-02-18T01:56:50;101070.13;;;8.84;71.17
55044;BME280;54902;50.420;18.854;2023-02-18T01:57:26;101069.27;;;8.84;71.28
55044;BME280;54902;50.420;18.854;2023-02-18T01:57:59;101067.51;;;8.83;71.17
55044;BME280;54902;50.420;18.854;2023-02-18T01:58:31;101071.33;;;8.80;71.27
55044;BME280;54902;50.420;18.854;2023-02-18T01:59:06;101064.13;;;8.79;70.85
55044;BME280;54902;50.420;18.854;2023-02-18T01:59:42;101058.69;;;8.79;70.67
55044;BME280;54902;50.420;18.854;2023-02-18T02:00:17;101062.41;;;8.78;70.74
55044;BME280;54902;50.420;18.854;2023-02-18T02:00:51;101070.59;;;8.78;70.71
55044;BME280;54902;50.420;18.854;2023-02-18T02:01:22;101071.55;;;8.77;71.01
55044;BME280;54902;50.420;18.854;2023-02-18T02:01:54;101068.05;;;8.75;71.05
55044;BME280;54902;50.420;18.854;2023-02-18T02:02:27;101065.45;;;8.74;71.08
55044;BME280;54902;50.420;18.854;2023-02-18T02:02:59;101052.80;;;8.73;70.72
55044;BME280;54902;50.420;18.854;2023-02-18T02:03:30;101051.94;;;8.72;70.51
55044;BME280;54902;50.420;18.854;2023-02-18T02:04:01;101070.16;;;8.72;70.37
55044;BME280;54902;50.420;18.854;2023-02-18T02:04:32;101060.23;;;8.71;70.57
55044;BME280;54902;50.420;18.854;2023-02-18T02:05:03;101059.38;;;8.70;69.92
55044;BME280;54902;50.420;18.854;2023-02-18T02:05:35;101068.52;;;8.69;70.03
55044;BME280;54902;50.420;18.854;2023-02-18T02:06:15;101056.73;;;8.69;69.85
55044;BME280;54902;50.420;18.854;2023-02-18T02:06:46;101076.80;;;8.68;69.51
55044;BME280;54902;50.420;18.854;2023-02-18T02:07:19;101075.04;;;8.67;69.92
55044;BME280;54902;50.420;18.854;2023-02-18T02:07:52;101071.47;;;8.67;69.92
55044;BME280;54902;50.420;18.854;2023-02-18T02:08:24;101059.80;;;8.65;69.98
55044;BME280;54902;50.420;18.854;2023-02-18T02:08:59;101076.14;;;8.65;70.15
55044;BME280;54902;50.420;18.854;2023-02-18T02:09:33;101059.91;;;8.63;70.10
55044;BME280;54902;50.420;18.854;2023-02-18T02:10:05;101071.66;;;8.64;69.82
55044;BME280;54902;50.420;18.854;2023-02-18T02:14:21;101070.36;;;8.57;69.68
55044;BME280;54902;50.420;18.854;2023-02-18T02:17:10;101055.23;;;8.53;69.41
55044;BME280;54902;50.420;18.854;2023-02-18T02:18:35;101039.01;;;8.51;69.11
55044;BME280;54902;50.420;18.854;2023-02-18T02:22:14;101083.77;;;8.47;67.35
55044;BME280;54902;50.420;18.854;2023-02-18T02:27:53;101066.02;;;8.42;65.02
55044;BME280;54902;50.420;18.854;2023-02-18T02:30:41;101081.57;;;8.40;65.53
55044;BME280;54902;50.420;18.854;2023-02-18T02:33:34;101083.55;;;8.38;64.80
55044;BME280;54902;50.420;18.854;2023-02-18T02:39:07;101102.91;;;8.33;66.01
55044;BME280;54902;50.420;18.854;2023-02-18T02:40:35;101095.71;;;8.32;65.47
55044;BME280;54902;50.420;18.854;2023-02-18T02:41:56;101093.09;;;8.31;65.17
55044;BME280;54902;50.420;18.854;2023-02-18T02:42:38;101098.54;;;8.31;65.10
55044;BME280;54902;50.420;18.854;2023-02-18T02:43:19;101102.23;;;8.30;65.59
55044;BME280;54902;50.420;18.854;2023-02-18T02:44:18;101092.35;;;8.29;65.39
55044;BME280;54902;50.420;18.854;2023-02-18T02:44:45;101097.80;;;8.29;65.66
55044;BME280;54902;50.420;18.854;2023-02-18T02:46:45;101097.02;;;8.27;65.50
55044;BME280;54902;50.420;18.854;2023-02-18T02:47:24;101099.73;;;8.27;65.47
55044;BME280;54902;50.420;18.854;2023-02-18T02:48:12;101105.18;;;8.27;65.65
55044;BME280;54902;50.420;18.854;2023-02-18T02:48:45;101102.45;;;8.27;65.58
55044;BME280;54902;50.420;18.854;2023-02-18T02:49:27;101097.13;;;8.25;65.85
55044;BME280;54902;50.420;18.854;2023-02-18T02:50:07;101104.44;;;8.25;66.00
55044;BME280;54902;50.420;18.854;2023-02-18T02:51:34;101104.44;;;8.25;66.08
55044;BME280;54902;50.420;18.854;2023-02-18T02:52:51;101113.57;;;8.24;65.90
55044;BME280;54902;50.420;18.854;2023-02-18T02:53:27;101117.26;;;8.23;65.93
55044;BME280;54902;50.420;18.854;2023-02-18T02:54:10;101111.81;;;8.23;66.23
55044;BME280;54902;50.420;18.854;2023-02-18T02:54:41;101120.94;;;8.22;66.51
55044;BME280;54902;50.420;18.854;2023-02-18T02:55:12;101113.79;;;8.21;66.48
55044;BME280;54902;50.420;18.854;2023-02-18T02:55:43;101118.34;;;8.20;66.46
55044;BME280;54902;50.420;18.854;2023-02-18T02:56:21;101116.59;;;8.19;66.33
55044;BME280;54902;50.420;18.854;2023-02-18T02:58:18;101113.97;;;8.18;66.60
55044;BME280;54902;50.420;18.854;2023-02-18T02:58:57;101116.70;;;8.18;66.54
55044;BME280;54902;50.420;18.854;2023-02-18T02:59:29;101117.70;;;8.17;66.70
55044;BME280;54902;50.420;18.854;2023-02-18T03:00:05;101115.95;;;8.16;66.59
55044;BME280;54902;50.420;18.854;2023-02-18T03:00:53;101113.22;;;8.16;66.59
55044;BME280;54902;50.420;18.854;2023-02-18T03:02:15;101117.02;;;8.13;66.74
55044;BME280;54902;50.420;18.854;2023-02-18T03:06:42;101132.63;;;8.10;67.33
55044;BME280;54902;50.420;18.854;2023-02-18T03:08:12;101116.53;;;8.07;67.62
55044;BME280;54902;50.420;18.854;2023-02-18T03:11:03;101136.54;;;8.06;67.39
55044;BME280;54902;50.420;18.854;2023-02-18T03:11:46;101123.91;;;8.05;67.44
55044;BME280;54902;50.420;18.854;2023-02-18T03:13:56;101127.64;;;8.04;66.53
55044;BME280;54902;50.420;18.854;2023-02-18T03:16:49;101125.02;;;8.03;65.25
55044;BME280;54902;50.420;18.854;2023-02-18T03:17:29;101112.28;;;8.03;65.31
55044;BME280;54902;50.420;18.854;2023-02-18T03:18:05;101129.57;;;8.02;65.10
55044;BME280;54902;50.420;18.854;2023-02-18T03:18:42;101139.59;;;8.02;65.43
55044;BME280;54902;50.420;18.854;2023-02-18T03:19:23;101135.01;;;8.02;65.41
55044;BME280;54902;50.420;18.854;2023-02-18T03:20:55;101132.40;;;8.01;64.95
55044;BME280;54902;50.420;18.854;2023-02-18T03:22:10;101137.84;;;8.01;65.57
55044;BME280;54902;50.420;18.854;2023-02-18T03:22:48;101140.67;;;7.99;65.68
55044;BME280;54902;50.420;18.854;2023-02-18T03:23:26;101130.65;;;8.00;65.43
55044;BME280;54902;50.420;18.854;2023-02-18T03:24:45;101154.27;;;7.99;65.58
55044;BME280;54902;50.420;18.854;2023-02-18T03:25:18;101149.80;;;7.98;65.34
55044;BME280;54902;50.420;18.854;2023-02-18T03:25:49;101144.36;;;7.98;65.34
55044;BME280;54902;50.420;18.854;2023-02-18T03:26:21;101146.22;;;7.98;65.20
55044;BME280;54902;50.420;18.854;2023-02-18T03:26:58;101149.80;;;7.98;65.27
55044;BME280;54902;50.420;18.854;2023-02-18T03:27:36;101141.64;;;7.98;65.25
55044;BME280;54902;50.420;18.854;2023-02-18T03:28:14;101146.22;;;7.98;65.08
55044;BME280;54902;50.420;18.854;2023-02-18T03:28:48;101143.61;;;7.96;65.35
55044;BME280;54902;50.420;18.854;2023-02-18T03:29:22;101155.45;;;7.95;65.29
55044;BME280;54902;50.420;18.854;2023-02-18T03:29:56;101147.30;;;7.95;65.20
55044;BME280;54902;50.420;18.854;2023-02-18T03:31:16;101148.27;;;7.94;65.50
55044;BME280;54902;50.420;18.854;2023-02-18T03:31:53;101145.65;;;7.93;65.60
55044;BME280;54902;50.420;18.854;2023-02-18T03:32:28;101141.18;;;7.92;65.67
55044;BME280;54902;50.420;18.854;2023-02-18T03:33:06;101152.06;;;7.92;65.69
55044;BME280;54902;50.420;18.854;2023-02-18T03:33:45;101136.06;;;7.87;65.69
55044;BME280;54902;50.420;18.854;2023-02-18T03:34:24;101143.15;;;7.90;65.57
55044;BME280;54902;50.420;18.854;2023-02-18T03:35:04;101157.60;;;7.90;65.51
55044;BME280;54902;50.420;18.854;2023-02-18T03:35:37;101155.85;;;7.89;65.69
55044;BME280;54902;50.420;18.854;2023-02-18T03:36:09;101156.85;;;7.88;65.50
55044;BME280;54902;50.420;18.854;2023-02-18T03:36:40;101146.95;;;7.87;65.74
55044;BME280;54902;50.420;18.854;2023-02-18T03:37:13;101156.07;;;7.86;65.88
55044;BME280;54902;50.420;18.854;2023-02-18T03:37:52;101149.77;;;7.86;65.74
55044;BME280;54902;50.420;18.854;2023-02-18T03:39:15;101152.56;;;7.84;65.89
55044;BME280;54902;50.420;18.854;2023-02-18T03:39:49;101151.71;;;7.84;66.01
55044;BME280;54902;50.420;18.854;2023-02-18T03:40:21;101149.09;;;7.82;65.95
55044;BME280;54902;50.420;18.854;2023-02-18T03:40:52;101150.05;;;7.81;65.82